Time;durP1;ratioP1;P1;durP2;ratioP2;P2;SDS_P1;SDS_P2;PMS_P1;PMS_P2;Temp;Humidity;BMP_temperature;BMP_pressure;BME280_temperature;BME280_humidity;BME280_pressure;Samples;Min_cycle;Max_cycle;Signal;HPM_P1;HPM_P2
2023/04/20 00:01:00;;;;;;;3.93;2.97;;;15.50;54.70;;;;;;5003095;28;20488;-90
2023/04/20 00:03:28;;;;;;;5.03;3.30;;;15.40;54.60;;;;;;5003661;28;20490;-91
2023/04/20 00:05:59;;;;;;;4.70;3.07;;;15.40;54.70;;;;;;5003070;28;20759;-90
2023/04/20 00:08:26;;;;;;;4.87;3.70;;;15.40;54.80;;;;;;5003147;28;20459;-90
2023/04/20 00:11:17;;;;;;;7.10;3.10;;;15.40;54.80;;;;;;5003796;28;20427;-90
2023/04/20 00:13:43;;;;;;;4.30;3.20;;;15.40;54.70;;;;;;5003414;28;20808;-89
2023/04/20 00:16:12;;;;;;;4.07;3.53;;;15.30;54.50;;;;;;5003189;28;20433;-90
2023/04/20 00:18:40;;;;;;;4.27;3.20;;;15.30;54.60;;;;;;5019275;28;20450;-90
2023/04/20 00:21:06;;;;;;;4.13;3.03;;;15.30;54.60;;;;;;5019175;28;20523;-89
2023/04/20 00:23:32;;;;;;;4.47;3.73;;;15.30;54.70;;;;;;5018991;28;20500;-89
2023/04/20 00:25:58;;;;;;;3.67;3.10;;;15.30;54.80;;;;;;5037416;28;20439;-89
2023/04/20 00:28:24;;;;;;;5.90;3.90;;;15.30;54.80;;;;;;5023855;28;20755;-89
2023/04/20 00:30:50;;;;;;;6.30;3.47;;;15.30;54.80;;;;;;5018558;28;20182;-90
2023/04/20 00:33:18;;;;;;;4.30;3.43;;;15.20;54.80;;;;;;5002033;28;21121;-89
2023/04/20 00:35:44;;;;;;;6.33;4.07;;;15.30;54.80;;;;;;5034842;28;20422;-90
2023/04/20 00:38:12;;;;;;;4.53;3.47;;;15.30;55.00;;;;;;5018788;28;20457;-89
2023/04/20 00:40:40;;;;;;;5.50;3.60;;;15.20;54.90;;;;;;5035257;28;20421;-89
2023/04/20 00:43:13;;;;;;;4.27;3.20;;;15.20;55.00;;;;;;5002186;28;20558;-90
2023/04/20 00:45:39;;;;;;;4.40;3.50;;;15.20;55.10;;;;;;5018938;28;20497;-89
2023/04/20 00:48:06;;;;;;;4.67;3.63;;;15.20;55.10;;;;;;5002430;28;20426;-90
2023/04/20 00:50:37;;;;;;;5.93;3.60;;;15.20;55.20;;;;;;5018411;28;20451;-89
2023/04/20 00:53:07;;;;;;;4.10;3.10;;;15.20;55.10;;;;;;5034886;28;20509;-91
2023/04/20 00:55:35;;;;;;;6.23;3.50;;;15.20;55.10;;;;;;5034901;28;20462;-89
2023/04/20 00:58:01;;;;;;;4.13;3.23;;;15.20;55.10;;;;;;5018473;28;20459;-89
2023/04/20 01:00:30;;;;;;;3.40;3.10;;;15.20;55.20;;;;;;5002279;28;20769;-90
2023/04/20 01:02:56;;;;;;;5.80;3.67;;;15.20;55.20;;;;;;5034660;28;20453;-89
2023/04/20 01:05:22;;;;;;;7.93;3.50;;;15.20;55.30;;;;;;5018084;28;20892;-89
2023/04/20 01:07:50;;;;;;;4.47;3.57;;;15.20;55.40;;;;;;5018420;28;20419;-89
2023/04/20 01:10:16;;;;;;;3.67;3.30;;;15.10;55.40;;;;;;5018508;28;20511;-89
2023/04/20 01:12:42;;;;;;;4.93;3.23;;;15.10;55.50;;;;;;5018539;28;20495;-90
2023/04/20 01:15:10;;;;;;;7.50;3.30;;;15.10;55.50;;;;;;5034146;28;20415;-90
2023/04/20 01:17:39;;;;;;;6.70;3.27;;;15.10;55.60;;;;;;5034248;28;20735;-90
2023/04/20 01:20:11;;;;;;;3.70;3.40;;;15.10;55.60;;;;;;5018041;28;20462;-89
2023/04/20 01:22:57;;;;;;;4.20;3.53;;;15.10;55.70;;;;;;5018190;28;20894;-89
2023/04/20 01:25:23;;;;;;;5.93;3.60;;;15.10;56.30;;;;;;5001862;28;20433;-90
2023/04/20 01:27:52;;;;;;;5.00;3.60;;;15.10;55.80;;;;;;5001755;28;20469;-90
2023/04/20 01:30:18;;;;;;;3.80;3.50;;;15.10;55.90;;;;;;5017980;28;20424;-89
2023/04/20 01:32:44;;;;;;;5.20;3.30;;;15.00;55.90;;;;;;5017836;28;20493;-90
2023/04/20 01:35:10;;;;;;;5.30;3.50;;;15.00;55.90;;;;;;5017930;28;20450;-89
2023/04/20 01:37:39;;;;;;;3.20;2.90;;;15.00;55.90;;;;;;5034418;28;20458;-89
2023/04/20 01:40:09;;;;;;;3.07;2.80;;;15.00;56.00;;;;;;5018074;28;20434;-88
2023/04/20 01:42:35;;;;;;;4.83;3.70;;;15.00;56.00;;;;;;5034643;28;20401;-90
2023/04/20 01:45:03;;;;;;;3.60;3.30;;;15.00;56.00;;;;;;5018643;28;20475;-89
2023/04/20 01:47:31;;;;;;;4.27;2.87;;;15.00;56.10;;;;;;5021896;28;20436;-89
2023/04/20 01:49:57;;;;;;;8.10;3.47;;;15.00;56.10;;;;;;5038432;28;20735;-90
2023/04/20 01:52:24;;;;;;;6.60;3.40;;;14.90;56.10;;;;;;5021749;28;20455;-90
2023/04/20 01:54:50;;;;;;;8.00;2.93;;;14.90;56.10;;;;;;5021658;28;20450;-90
2023/04/20 01:57:16;;;;;;;4.23;3.33;;;14.90;56.10;;;;;;5021563;28;20441;-89
2023/04/20 01:59:42;;;;;;;5.70;3.17;;;14.90;56.20;;;;;;5038006;28;20439;-90
2023/04/20 02:02:08;;;;;;;3.63;3.33;;;14.90;56.20;;;;;;5005409;28;20415;-90
2023/04/20 02:04:34;;;;;;;4.10;2.93;;;14.90;56.30;;;;;;5021518;28;20201;-90
2023/04/20 02:07:00;;;;;;;5.07;3.77;;;14.80;56.20;;;;;;5005208;28;20455;-90
2023/04/20 02:09:26;;;;;;;4.73;3.00;;;14.80;56.30;;;;;;5005667;28;20530;-88
2023/04/20 02:11:51;;;;;;;4.53;2.83;;;14.80;56.50;;;;;;5005121;28;20189;-90
2023/04/20 02:14:20;;;;;;;4.20;3.37;;;14.80;56.50;;;;;;5004992;28;20768;-90
2023/04/20 02:16:49;;;;;;;3.93;2.80;;;14.80;56.60;;;;;;5022013;28;20420;-89
2023/04/20 02:19:17;;;;;;;3.47;3.17;;;14.80;56.70;;;;;;5005287;28;20472;-89
2023/04/20 02:21:43;;;;;;;4.53;3.27;;;14.80;56.70;;;;;;5005122;28;20531;-89
2023/04/20 02:24:09;;;;;;;3.50;3.20;;;14.80;56.70;;;;;;5004860;28;20473;-89
2023/04/20 02:26:37;;;;;;;3.50;2.67;;;14.70;56.70;;;;;;5005019;28;20420;-90
2023/04/20 02:29:03;;;;;;;5.50;3.50;;;14.70;56.80;;;;;;5021473;28;20438;-90
2023/04/20 02:31:29;;;;;;;3.13;2.87;;;14.70;56.90;;;;;;5004902;28;20447;-89
2023/04/20 02:33:55;;;;;;;4.93;2.87;;;14.70;57.00;;;;;;5021287;28;20431;-90
2023/04/20 02:36:21;;;;;;;3.37;2.93;;;14.60;57.50;;;;;;5004735;28;20427;-89
2023/04/20 02:38:49;;;;;;;3.33;2.80;;;14.70;57.10;;;;;;4988965;28;20467;-90
2023/04/20 02:41:15;;;;;;;3.47;3.17;;;14.60;57.10;;;;;;5004681;28;20423;-89
2023/04/20 02:43:41;;;;;;;3.67;3.00;;;14.60;57.10;;;;;;5020946;28;20196;-89
2023/04/20 02:46:12;;;;;;;3.80;2.97;;;14.60;57.20;;;;;;5021123;28;20390;-90
2023/04/20 02:48:37;;;;;;;3.30;2.97;;;14.60;57.20;;;;;;5020743;28;20729;-90
2023/04/20 02:51:03;;;;;;;3.80;3.10;;;14.60;57.30;;;;;;5004404;28;20441;-90
2023/04/20 02:53:39;;;;;;;3.27;2.80;;;14.60;57.40;;;;;;5005676;28;20427;-90
2023/04/20 02:56:14;;;;;;;4.70;3.10;;;14.60;57.50;;;;;;5003912;28;20425;-89
2023/04/20 02:58:47;;;;;;;4.97;3.30;;;14.50;57.50;;;;;;5004815;28;20796;-90
2023/04/20 03:01:20;;;;;;;5.63;3.57;;;14.60;57.70;;;;;;5005401;28;20421;-90
2023/04/20 03:03:51;;;;;;;3.47;3.07;;;14.50;57.70;;;;;;5020464;28;20530;-90
2023/04/20 03:06:17;;;;;;;3.97;3.00;;;14.50;57.70;;;;;;5004189;28;20479;-91
2023/04/20 03:08:48;;;;;;;3.73;2.63;;;14.50;57.80;;;;;;5004914;28;20411;-90
2023/04/20 03:11:45;;;;;;;2.90;2.60;;;14.50;57.90;;;;;;5016197;28;20470;-89
2023/04/20 03:14:20;;;;;;;4.53;3.20;;;14.50;58.00;;;;;;5004152;28;20476;-89
2023/04/20 03:16:46;;;;;;;3.40;3.10;;;14.40;57.90;;;;;;5020064;28;20852;-90
2023/04/20 03:19:12;;;;;;;4.37;2.83;;;14.40;58.00;;;;;;5004139;28;20427;-90
2023/04/20 03:21:38;;;;;;;4.80;2.90;;;14.40;58.40;;;;;;5004064;28;20436;-90
2023/04/20 03:24:05;;;;;;;3.60;3.27;;;14.40;58.70;;;;;;5019785;28;20462;-90
2023/04/20 03:26:33;;;;;;;4.60;2.97;;;14.40;58.20;;;;;;5020350;28;20476;-90
2023/04/20 03:29:26;;;;;;;3.77;2.90;;;14.40;58.30;;;;;;5007379;28;20459;-89
2023/04/20 03:31:52;;;;;;;6.50;2.77;;;14.40;58.40;;;;;;5020283;28;20417;-90
2023/04/20 03:34:18;;;;;;;3.20;2.87;;;14.40;58.50;;;;;;5003675;28;20414;-89
2023/04/20 03:36:44;;;;;;;3.23;2.83;;;14.30;58.50;;;;;;5020341;28;20775;-90
2023/04/20 03:39:10;;;;;;;5.10;2.97;;;14.30;58.60;;;;;;5003809;28;20422;-89
2023/04/20 03:41:36;;;;;;;4.97;3.23;;;14.30;58.60;;;;;;5003230;28;20936;-90
2023/04/20 03:44:02;;;;;;;3.60;2.90;;;14.30;58.80;;;;;;5003312;28;20498;-89
2023/04/20 03:46:28;;;;;;;4.77;2.87;;;14.30;58.90;;;;;;5019735;28;20437;-90
2023/04/20 03:48:54;;;;;;;3.40;2.70;;;14.30;59.00;;;;;;5019517;28;20414;-89
2023/04/20 03:51:19;;;;;;;4.60;3.00;;;14.30;59.10;;;;;;5003459;28;20423;-90
2023/04/20 03:53:45;;;;;;;5.83;2.80;;;14.30;59.10;;;;;;5019418;28;20510;-90
2023/04/20 03:56:12;;;;;;;3.40;2.97;;;14.30;59.20;;;;;;5019727;28;20212;-89
2023/04/20 03:58:39;;;;;;;4.30;3.30;;;14.30;59.30;;;;;;5019580;28;20423;-90
2023/04/20 04:01:46;;;;;;;4.37;3.03;;;14.30;59.30;;;;;;5002832;28;20450;-90
2023/04/20 04:04:12;;;;;;;5.37;3.50;;;14.20;59.30;;;;;;4959733;28;20487;-89
2023/04/20 04:06:38;;;;;;;6.67;3.47;;;14.20;59.30;;;;;;4988699;28;20462;-90
2023/04/20 04:09:04;;;;;;;7.27;3.03;;;14.20;59.40;;;;;;5018441;28;20438;-89
2023/04/20 04:11:30;;;;;;;7.80;2.70;;;14.20;59.40;;;;;;5019251;28;20183;-89
2023/04/20 04:13:58;;;;;;;4.07;3.67;;;14.20;59.50;;;;;;5002862;28;20220;-89
2023/04/20 04:16:24;;;;;;;4.33;2.80;;;14.20;59.60;;;;;;5002668;28;20435;-89
2023/04/20 04:18:50;;;;;;;3.00;2.70;;;14.20;59.70;;;;;;5002753;28;20456;-89
2023/04/20 04:21:16;;;;;;;3.50;2.90;;;14.20;59.80;;;;;;5035408;28;20541;-90
2023/04/20 04:23:48;;;;;;;3.80;3.17;;;14.10;59.80;;;;;;5002732;28;20423;-91
2023/04/20 04:26:34;;;;;;;7.07;3.23;;;14.10;59.90;;;;;;5019058;28;20511;-87
2023/04/20 04:29:03;;;;;;;4.07;3.03;;;14.20;60.20;;;;;;5035315;28;20431;-89
2023/04/20 04:31:31;;;;;;;3.50;3.20;;;14.10;60.10;;;;;;5002453;28;20844;-90
2023/04/20 04:34:02;;;;;;;3.87;3.13;;;14.10;60.20;;;;;;5002664;28;20498;-89
2023/04/20 04:36:37;;;;;;;4.03;2.57;;;14.10;60.30;;;;;;5002286;28;20516;-89
2023/04/20 04:39:08;;;;;;;4.33;2.93;;;14.10;60.50;;;;;;5019146;28;20435;-89
2023/04/20 04:41:35;;;;;;;8.00;3.60;;;14.10;60.50;;;;;;5002568;28;20630;-90
2023/04/20 04:44:36;;;;;;;3.47;3.17;;;14.10;60.60;;;;;;5008342;28;20520;-89
2023/04/20 04:47:05;;;;;;;6.60;3.20;;;14.10;60.80;;;;;;5035210;28;20420;-89
2023/04/20 04:49:36;;;;;;;3.20;2.70;;;14.00;60.70;;;;;;5019057;28;20771;-89
2023/04/20 04:52:03;;;;;;;3.80;3.10;;;14.00;60.80;;;;;;5010988;28;20446;-90
2023/04/20 04:54:28;;;;;;;4.13;3.17;;;14.00;60.90;;;;;;4997946;28;20473;-89
2023/04/20 04:56:54;;;;;;;4.60;2.90;;;14.00;61.10;;;;;;5014603;28;20447;-91
2023/04/20 04:59:20;;;;;;;3.43;2.60;;;14.00;61.10;;;;;;4981690;28;20427;-89
2023/04/20 05:01:46;;;;;;;4.33;3.23;;;14.00;61.30;;;;;;5014532;28;20226;-92
2023/04/20 05:04:12;;;;;;;3.40;2.93;;;14.00;61.40;;;;;;5014918;28;20429;-91
2023/04/20 05:06:38;;;;;;;4.93;3.63;;;13.90;61.40;;;;;;4997772;28;20517;-91
2023/04/20 05:09:04;;;;;;;4.97;3.77;;;14.00;61.70;;;;;;4997996;28;20497;-89
2023/04/20 05:11:30;;;;;;;10.50;3.67;;;13.90;61.80;;;;;;4981739;28;20428;-90
2023/04/20 05:13:56;;;;;;;5.10;3.23;;;13.90;62.10;;;;;;4998005;28;20490;-90
2023/04/20 05:16:22;;;;;;;5.87;3.50;;;13.90;62.40;;;;;;5014277;28;20782;-91
2023/04/20 05:18:48;;;;;;;4.30;3.83;;;13.90;62.60;;;;;;5013978;28;20423;-90
2023/04/20 05:21:14;;;;;;;5.03;3.60;;;13.80;62.80;;;;;;4997734;28;20197;-90
2023/04/20 05:23:40;;;;;;;5.30;3.60;;;13.90;63.10;;;;;;4981718;28;21090;-90
2023/04/20 05:26:06;;;;;;;5.50;3.80;;;13.90;63.30;;;;;;5013436;28;20864;-90
2023/04/20 05:28:35;;;;;;;4.77;3.87;;;13.90;63.50;;;;;;5017821;28;20442;-90
2023/04/20 05:31:01;;;;;;;5.00;3.10;;;13.80;63.60;;;;;;5002047;28;20502;-90
2023/04/20 05:33:27;;;;;;;4.40;3.30;;;13.80;63.80;;;;;;5001838;28;20846;-90
2023/04/20 05:35:57;;;;;;;6.03;3.83;;;13.80;64.00;;;;;;5018620;28;20440;-89
2023/04/20 05:38:24;;;;;;;4.13;3.60;;;13.80;64.10;;;;;;5035044;28;20459;-93
2023/04/20 05:40:50;;;;;;;4.53;4.17;;;13.80;64.30;;;;;;4986353;28;20831;-92
2023/04/20 05:43:19;;;;;;;5.30;4.53;;;13.80;64.50;;;;;;5018436;28;20430;-93
2023/04/20 05:45:45;;;;;;;6.30;4.70;;;13.80;64.60;;;;;;5018694;28;20437;-94
2023/04/20 05:48:11;;;;;;;5.97;4.20;;;13.80;64.80;;;;;;5018271;28;20433;-92
2023/04/20 05:50:37;;;;;;;4.30;4.00;;;13.70;65.60;;;;;;5002853;28;20434;-92
2023/04/20 05:53:03;;;;;;;7.40;4.70;;;13.70;64.90;;;;;;5018526;28;20568;-93
2023/04/20 05:55:29;;;;;;;4.73;4.20;;;13.70;65.10;;;;;;5035007;28;20191;-93
2023/04/20 05:57:55;;;;;;;6.13;5.20;;;13.70;65.20;;;;;;5018642;28;20442;-93
2023/04/20 06:00:22;;;;;;;10.47;7.10;;;13.70;65.30;;;;;;5018253;28;20458;-93
2023/04/20 06:02:49;;;;;;;7.23;5.40;;;13.70;65.50;;;;;;5018494;28;20739;-92
2023/04/20 06:05:15;;;;;;;8.63;4.93;;;13.70;65.60;;;;;;5018040;28;20421;-91
2023/04/20 06:07:41;;;;;;;5.80;5.30;;;13.70;65.70;;;;;;5018202;28;20501;-92
2023/04/20 06:10:08;;;;;;;5.90;4.33;;;13.70;65.80;;;;;;5018429;28;20464;-91
2023/04/20 06:12:34;;;;;;;6.33;4.70;;;13.60;65.80;;;;;;5001847;28;20468;-93
2023/04/20 06:15:00;;;;;;;4.57;4.10;;;13.70;66.00;;;;;;4993901;28;20942;-92
2023/04/20 06:17:26;;;;;;;4.80;4.40;;;13.70;66.00;;;;;;5001828;28;20504;-90
2023/04/20 06:19:52;;;;;;;7.23;4.50;;;13.60;66.00;;;;;;5018482;28;20463;-92
2023/04/20 06:22:18;;;;;;;5.00;4.20;;;13.60;66.10;;;;;;5017991;28;20437;-92
2023/04/20 06:24:44;;;;;;;5.37;4.03;;;13.60;66.20;;;;;;5001820;28;20451;-93
2023/04/20 06:27:11;;;;;;;6.17;4.83;;;13.60;66.30;;;;;;5002034;28;20427;-92
2023/04/20 06:29:37;;;;;;;4.77;4.27;;;13.60;66.30;;;;;;4985898;28;20193;-92
2023/04/20 06:32:03;;;;;;;4.80;4.40;;;13.60;66.40;;;;;;5003583;28;20506;-93
2023/04/20 06:34:30;;;;;;;4.90;3.97;;;13.60;67.30;;;;;;5038251;28;20460;-92
2023/04/20 06:36:55;;;;;;;4.87;4.33;;;13.60;66.60;;;;;;5006044;28;20452;-91
2023/04/20 06:39:24;;;;;;;6.33;4.33;;;13.60;66.70;;;;;;5005582;28;20452;-93
2023/04/20 06:41:50;;;;;;;5.17;4.07;;;13.60;66.90;;;;;;5005752;28;20806;-93
2023/04/20 06:44:19;;;;;;;4.70;4.20;;;13.60;66.90;;;;;;5005454;28;20422;-92
2023/04/20 06:46:45;;;;;;;6.50;4.90;;;13.50;67.00;;;;;;5005421;28;20459;-92
2023/04/20 06:49:11;;;;;;;5.73;4.30;;;13.60;67.20;;;;;;5005677;28;20430;-92
2023/04/20 06:51:55;;;;;;;6.13;4.50;;;13.60;67.30;;;;;;5005250;28;20512;-92
2023/04/20 06:54:24;;;;;;;4.70;4.23;;;13.50;67.50;;;;;;5004936;28;20475;-92
2023/04/20 06:56:54;;;;;;;4.53;4.03;;;13.50;67.60;;;;;;5037910;28;20416;-92
2023/04/20 06:59:27;;;;;;;4.60;4.20;;;13.50;67.80;;;;;;5005116;28;20468;-90
2023/04/20 07:02:23;;;;;;;5.63;4.40;;;13.50;68.00;;;;;;5005453;28;20502;-92
2023/04/20 07:04:52;;;;;;;5.30;4.27;;;13.50;68.20;;;;;;5021379;28;20494;-92
2023/04/20 07:07:17;;;;;;;5.43;4.53;;;13.40;68.30;;;;;;5021203;28;20904;-91
2023/04/20 07:09:43;;;;;;;4.70;4.30;;;13.40;68.50;;;;;;5021141;28;20433;-91
2023/04/20 07:12:17;;;;;;;4.60;4.20;;;13.40;68.70;;;;;;5004978;28;20472;-91
2023/04/20 07:14:50;;;;;;;4.53;4.10;;;13.50;69.00;;;;;;5005390;28;20926;-92
2023/04/20 07:17:28;;;;;;;6.37;4.43;;;13.40;69.00;;;;;;5004852;28;20418;-91
2023/04/20 07:19:55;;;;;;;5.07;4.60;;;13.40;69.10;;;;;;5004007;28;20516;-92
2023/04/20 07:22:24;;;;;;;6.10;4.93;;;13.50;69.30;;;;;;5004813;28;20746;-92
2023/04/20 07:24:56;;;;;;;7.20;4.57;;;13.50;69.50;;;;;;5005010;28;20433;-93
2023/04/20 07:27:22;;;;;;;6.13;4.73;;;13.40;69.50;;;;;;5004801;28;20523;-93
2023/04/20 07:29:48;;;;;;;5.30;4.80;;;13.40;69.60;;;;;;5020951;28;20440;-93
2023/04/20 07:32:14;;;;;;;5.30;4.70;;;13.40;69.80;;;;;;5004337;28;20427;-90
2023/04/20 07:34:40;;;;;;;9.37;5.03;;;13.40;69.90;;;;;;5004386;28;20799;-92
2023/04/20 07:37:06;;;;;;;7.30;5.87;;;13.40;70.00;;;;;;5004346;28;20428;-91
2023/04/20 07:39:32;;;;;;;5.83;4.70;;;13.40;70.90;;;;;;5020714;28;20449;-92
2023/04/20 07:41:58;;;;;;;5.80;5.20;;;13.40;70.30;;;;;;5004512;28;20515;-91
2023/04/20 07:44:24;;;;;;;4.63;4.23;;;13.40;70.50;;;;;;5004319;28;20769;-92
2023/04/20 07:46:50;;;;;;;5.90;5.33;;;13.40;70.60;;;;;;5004459;28;20455;-91
2023/04/20 07:49:20;;;;;;;7.23;5.33;;;13.30;70.60;;;;;;5004619;28;20424;-92
2023/04/20 07:51:46;;;;;;;7.20;5.43;;;13.30;70.70;;;;;;5020308;28;20449;-91
2023/04/20 07:54:12;;;;;;;5.40;4.50;;;13.40;71.00;;;;;;4987810;28;20475;-91
2023/04/20 07:56:38;;;;;;;6.80;5.50;;;13.30;71.10;;;;;;5004045;28;20438;-92
2023/04/20 07:59:04;;;;;;;6.50;5.30;;;13.30;71.20;;;;;;4988033;28;20527;-92
2023/04/20 08:01:30;;;;;;;7.47;5.10;;;13.30;71.30;;;;;;5020275;28;20418;-91
2023/04/20 08:03:56;;;;;;;5.60;4.80;;;13.30;71.40;;;;;;5020266;28;20438;-88
2023/04/20 08:06:22;;;;;;;5.93;5.27;;;13.30;71.50;;;;;;5003878;28;20441;-93
2023/04/20 08:08:48;;;;;;;7.00;5.17;;;13.40;71.80;;;;;;5003868;28;20435;-93
2023/04/20 08:11:14;;;;;;;5.93;5.33;;;13.30;71.70;;;;;;5020100;28;20640;-92
2023/04/20 08:13:40;;;;;;;5.27;4.77;;;13.40;71.90;;;;;;5003824;28;20478;-91
2023/04/20 08:16:06;;;;;;;5.23;4.63;;;13.30;71.90;;;;;;5003614;28;20421;-92
2023/04/20 08:18:32;;;;;;;6.60;5.00;;;13.30;72.00;;;;;;5003831;28;20421;-91
2023/04/20 08:20:58;;;;;;;5.07;4.60;;;13.30;72.10;;;;;;5019642;28;20483;-92
2023/04/20 08:23:26;;;;;;;5.63;5.00;;;13.30;72.10;;;;;;5020140;28;20198;-92
2023/04/20 08:25:55;;;;;;;6.87;5.30;;;13.30;72.20;;;;;;5019947;28;20485;-90
2023/04/20 08:28:22;;;;;;;10.00;5.10;;;13.30;72.30;;;;;;5019858;28;20428;-92
2023/04/20 08:30:49;;;;;;;5.60;5.10;;;13.30;72.40;;;;;;5019947;28;20491;-93
2023/04/20 08:33:15;;;;;;;4.97;4.57;;;13.30;72.50;;;;;;5019513;28;20470;-91
2023/04/20 08:35:41;;;;;;;6.07;5.13;;;13.30;72.50;;;;;;5003356;28;20765;-92
2023/04/20 08:38:07;;;;;;;5.80;5.30;;;13.30;72.50;;;;;;5003449;28;20441;-91
2023/04/20 08:40:35;;;;;;;7.30;5.13;;;13.30;72.60;;;;;;5002943;28;20831;-91
2023/04/20 08:43:01;;;;;;;6.23;4.90;;;13.30;72.60;;;;;;5020212;28;20829;-91
2023/04/20 08:45:29;;;;;;;6.03;4.63;;;13.30;72.70;;;;;;5035998;28;20530;-92
2023/04/20 08:47:57;;;;;;;6.47;5.50;;;13.30;72.80;;;;;;5019381;28;20514;-93
2023/04/20 08:50:23;;;;;;;5.70;4.93;;;13.30;72.90;;;;;;5019598;28;20427;-92
2023/04/20 08:52:49;;;;;;;6.70;5.30;;;13.30;72.90;;;;;;5002778;28;20457;-92
2023/04/20 08:55:16;;;;;;;5.37;4.80;;;13.30;72.90;;;;;;5018441;28;20517;-92
2023/04/20 08:57:43;;;;;;;10.20;5.73;;;13.30;72.80;;;;;;5019408;28;20424;-91
2023/04/20 09:00:10;;;;;;;6.10;5.10;;;13.30;72.80;;;;;;5036207;28;20481;-92
2023/04/20 09:02:54;;;;;;;5.93;5.33;;;13.30;72.90;;;;;;5019420;28;20978;-92
2023/04/20 09:05:28;;;;;;;5.57;4.80;;;13.30;72.90;;;;;;5019882;28;20425;-92
2023/04/20 09:07:57;;;;;;;5.53;5.03;;;13.30;73.00;;;;;;5002962;28;20556;-91
2023/04/20 09:10:24;;;;;;;5.50;5.00;;;13.30;73.10;;;;;;5019465;28;20448;-92
2023/04/20 09:12:51;;;;;;;5.30;4.80;;;13.30;73.10;;;;;;5002756;28;20433;-91
2023/04/20 09:15:28;;;;;;;7.13;5.60;;;13.30;73.10;;;;;;5018828;28;20471;-90
2023/04/20 09:17:54;;;;;;;5.30;4.80;;;13.30;73.00;;;;;;5019111;28;20429;-92
2023/04/20 09:20:32;;;;;;;5.20;4.70;;;13.30;73.10;;;;;;5019011;28;20434;-92
2023/04/20 09:23:15;;;;;;;5.30;4.80;;;13.30;73.10;;;;;;5002563;28;20416;-91
2023/04/20 09:25:42;;;;;;;8.00;5.00;;;13.30;73.10;;;;;;5002573;28;20457;-93
2023/04/20 09:28:08;;;;;;;5.30;4.80;;;13.20;73.00;;;;;;5035493;28;20482;-91
2023/04/20 09:30:50;;;;;;;5.80;5.10;;;13.20;73.10;;;;;;5003227;28;20405;-91
2023/04/20 09:33:18;;;;;;;4.80;4.40;;;13.20;73.10;;;;;;5019516;28;20488;-92
2023/04/20 09:35:44;;;;;;;5.73;5.10;;;13.20;73.10;;;;;;5019498;28;20456;-92
2023/04/20 09:38:15;;;;;;;5.80;4.87;;;13.30;73.30;;;;;;4987016;28;20427;-91
2023/04/20 09:40:41;;;;;;;5.03;4.60;;;13.30;73.40;;;;;;5002604;28;20414;-91
2023/04/20 09:43:11;;;;;;;5.67;5.10;;;13.30;73.50;;;;;;5003049;28;20444;-91
2023/04/20 09:45:38;;;;;;;6.10;4.77;;;13.20;73.50;;;;;;5019177;28;20424;-91
2023/04/20 09:48:06;;;;;;;4.93;4.53;;;13.30;73.80;;;;;;5019586;28;20544;-90
2023/04/20 09:50:37;;;;;;;4.83;4.37;;;13.30;74.10;;;;;;5003140;28;20446;-92
2023/04/20 09:53:04;;;;;;;5.53;4.90;;;13.20;74.10;;;;;;5019843;28;20430;-91
2023/04/20 09:55:33;;;;;;;7.57;5.17;;;13.20;74.30;;;;;;5003328;28;20447;-90
2023/04/20 09:58:03;;;;;;;6.00;4.30;;;13.20;74.50;;;;;;5019857;28;20426;-91
2023/04/20 10:00:29;;;;;;;5.93;4.90;;;13.20;74.60;;;;;;5021571;28;20441;-91
2023/04/20 10:02:56;;;;;;;5.53;4.90;;;13.20;74.70;;;;;;5005880;28;20453;-91
2023/04/20 10:05:35;;;;;;;7.33;5.20;;;13.20;74.70;;;;;;5002214;28;20481;-93
2023/04/20 10:08:02;;;;;;;5.73;4.77;;;13.20;74.80;;;;;;5006168;28;20433;-91
2023/04/20 10:10:29;;;;;;;5.30;4.80;;;13.20;74.90;;;;;;5038802;28;20423;-85
2023/04/20 10:12:58;;;;;;;5.13;4.43;;;13.20;75.00;;;;;;5038673;28;20458;-91
2023/04/20 10:15:36;;;;;;;6.90;5.43;;;13.30;75.20;;;;;;5038631;28;20571;-92
2023/04/20 10:18:13;;;;;;;6.00;4.87;;;13.30;75.10;;;;;;5022856;28;20434;-93
2023/04/20 10:20:39;;;;;;;5.80;5.20;;;13.30;75.10;;;;;;5022010;28;20436;-91
2023/04/20 10:23:08;;;;;;;5.13;4.03;;;13.30;75.00;;;;;;5005924;28;21137;-91
2023/04/20 10:25:34;;;;;;;5.27;4.00;;;13.30;75.00;;;;;;5006102;28;20434;-91
2023/04/20 10:28:04;;;;;;;5.60;5.10;;;13.30;74.90;;;;;;5022237;28;20432;-92
2023/04/20 10:30:32;;;;;;;5.70;4.07;;;13.30;74.90;;;;;;5005994;28;20448;-92
2023/04/20 10:33:06;;;;;;;5.13;4.33;;;13.30;74.90;;;;;;5022439;28;20505;-92
2023/04/20 10:35:53;;;;;;;4.87;4.30;;;13.40;75.10;;;;;;5006003;28;20982;-89
2023/04/20 10:38:34;;;;;;;4.00;3.60;;;13.40;75.10;;;;;;5005668;28;20425;-92
2023/04/20 10:41:11;;;;;;;5.53;4.37;;;13.40;75.20;;;;;;5022187;28;20426;-92
2023/04/20 10:43:42;;;;;;;4.73;4.33;;;13.40;75.20;;;;;;5021797;28;20529;-92
2023/04/20 10:46:21;;;;;;;4.00;3.67;;;13.40;75.20;;;;;;5005656;28;20493;-91
2023/04/20 10:48:55;;;;;;;4.10;3.80;;;13.40;75.20;;;;;;4985866;28;20424;-92
2023/04/20 10:51:21;;;;;;;4.83;4.33;;;13.40;75.20;;;;;;5001541;28;20470;-92
2023/04/20 10:54:03;;;;;;;4.13;3.83;;;13.40;75.30;;;;;;5002033;28;20473;-91
2023/04/20 10:56:37;;;;;;;4.70;3.80;;;13.40;75.30;;;;;;5018396;28;20493;-92
2023/04/20 10:59:10;;;;;;;4.87;4.37;;;13.40;75.40;;;;;;5001921;28;20428;-91
2023/04/20 11:01:39;;;;;;;4.10;3.70;;;13.40;75.60;;;;;;4985575;28;20418;-93
2023/04/20 11:04:06;;;;;;;3.90;3.43;;;13.40;75.80;;;;;;4985547;28;20463;-90
2023/04/20 11:06:33;;;;;;;4.17;3.77;;;13.50;76.10;;;;;;5001627;28;20496;-93
2023/04/20 11:08:59;;;;;;;4.83;4.17;;;13.40;76.10;;;;;;5009563;28;20516;-92
2023/04/20 11:11:27;;;;;;;5.43;3.77;;;13.40;76.10;;;;;;4985486;28;20558;-92
2023/04/20 11:14:11;;;;;;;3.60;3.20;;;13.50;76.20;;;;;;5001576;28;20890;-92
2023/04/20 11:16:39;;;;;;;3.27;2.97;;;13.50;76.10;;;;;;5001085;28;20511;-91
2023/04/20 11:19:05;;;;;;;4.40;3.50;;;13.50;75.90;;;;;;5018072;28;20807;-93
2023/04/20 11:21:39;;;;;;;4.20;3.80;;;13.50;75.90;;;;;;4985667;28;20427;-94
2023/04/20 11:24:18;;;;;;;4.30;2.77;;;13.50;75.70;;;;;;5001984;28;20467;-90
2023/04/20 11:26:47;;;;;;;4.23;3.00;;;13.60;75.70;;;;;;5001597;28;20461;-92
2023/04/20 11:29:13;;;;;;;3.17;2.97;;;13.60;75.60;;;;;;5001360;28;20488;-92
2023/04/20 11:31:39;;;;;;;3.57;3.17;;;13.60;75.60;;;;;;5001436;28;20820;-94
2023/04/20 11:34:07;;;;;;;3.03;2.73;;;13.60;75.50;;;;;;5001270;28;20470;-92
2023/04/20 11:36:38;;;;;;;4.83;3.27;;;13.60;75.30;;;;;;5001361;28;20430;-91
2023/04/20 11:39:08;;;;;;;3.27;2.97;;;13.60;75.20;;;;;;4994356;28;20438;-93
2023/04/20 11:41:37;;;;;;;3.50;3.10;;;13.60;75.20;;;;;;5001144;28;20525;-91
2023/04/20 11:44:05;;;;;;;4.03;3.20;;;13.70;75.20;;;;;;5001143;28;20472;-93
2023/04/20 11:46:35;;;;;;;3.17;2.97;;;13.70;75.10;;;;;;5020261;28;20425;-92
2023/04/20 11:49:03;;;;;;;3.80;3.20;;;13.70;75.90;;;;;;4996762;28;20416;-93
2023/04/20 11:51:30;;;;;;;3.77;3.40;;;13.70;75.10;;;;;;5020660;28;20463;-92
2023/04/20 11:53:56;;;;;;;3.27;3.00;;;13.70;75.20;;;;;;5003958;28;20489;-93
2023/04/20 11:56:22;;;;;;;3.63;3.33;;;13.70;75.20;;;;;;5020418;28;20426;-93
2023/04/20 11:58:48;;;;;;;3.60;3.20;;;13.70;75.30;;;;;;5020403;28;20451;-92
2023/04/20 12:01:15;;;;;;;4.40;3.90;;;13.70;75.40;;;;;;5004007;28;20434;-91
2023/04/20 12:03:41;;;;;;;3.50;3.20;;;13.70;75.50;;;;;;5003792;28;20894;-92
2023/04/20 12:06:07;;;;;;;3.53;3.23;;;13.70;75.50;;;;;;5020007;28;20421;-90
2023/04/20 12:08:33;;;;;;;3.10;2.80;;;13.70;75.50;;;;;;5004592;28;20427;-92
2023/04/20 12:10:59;;;;;;;3.70;3.30;;;13.70;75.50;;;;;;5004086;28;20433;-93
2023/04/20 12:13:25;;;;;;;3.93;2.80;;;13.80;75.30;;;;;;5003769;28;20791;-91
2023/04/20 12:15:52;;;;;;;3.30;3.00;;;13.80;75.10;;;;;;5004098;28;20415;-93
2023/04/20 12:18:18;;;;;;;2.70;2.50;;;13.80;75.10;;;;;;5003480;28;21355;-90
2023/04/20 12:20:45;;;;;;;3.30;3.00;;;13.80;74.90;;;;;;5020084;28;20629;-91
2023/04/20 12:23:12;;;;;;;3.40;3.10;;;13.80;74.80;;;;;;5003899;28;20437;-92
2023/04/20 12:25:38;;;;;;;3.40;2.70;;;13.80;74.70;;;;;;5003809;28;20934;-92
2023/04/20 12:28:07;;;;;;;3.07;2.77;;;13.80;74.70;;;;;;5019844;28;20446;-92
2023/04/20 12:30:35;;;;;;;3.57;2.80;;;13.80;74.70;;;;;;5002926;28;20470;-92
2023/04/20 12:33:04;;;;;;;3.07;2.77;;;13.80;74.70;;;;;;5003486;28;20424;-93
2023/04/20 12:35:30;;;;;;;3.40;2.90;;;13.80;74.70;;;;;;5019868;28;20426;-92
2023/04/20 12:37:56;;;;;;;3.50;3.20;;;13.90;74.80;;;;;;5003526;28;20429;-92
2023/04/20 12:40:25;;;;;;;3.07;2.77;;;13.90;74.70;;;;;;5003986;28;20414;-92
2023/04/20 12:42:51;;;;;;;2.63;2.43;;;13.90;74.80;;;;;;5019690;28;20425;-92
2023/04/20 12:45:18;;;;;;;2.90;2.70;;;13.90;74.60;;;;;;5003172;28;20535;-92
2023/04/20 12:47:44;;;;;;;3.00;2.80;;;13.90;74.50;;;;;;5019449;28;20913;-92
2023/04/20 12:50:10;;;;;;;2.60;2.40;;;13.90;74.30;;;;;;5019571;28;20751;-92
2023/04/20 12:52:36;;;;;;;4.50;2.47;;;13.90;74.10;;;;;;5003177;28;20453;-92